sensor_id;sensor_type;location;lat;lon;timestamp;P1;durP1;ratioP1;P2;durP2;ratioP2
19543;SDS011;9917;51.256;7.152;2023-03-03T00:00:45;44.00;;;22.83;;
19543;SDS011;9917;51.256;7.152;2023-03-03T00:03:13;43.93;;;22.73;;
19543;SDS011;9917;51.256;7.152;2023-03-03T00:05:41;46.23;;;22.50;;
19543;SDS011;9917;51.256;7.152;2023-03-03T00:08:07;46.43;;;22.80;;
19543;SDS011;9917;51.256;7.152;2023-03-03T00:10:34;53.40;;;24.83;;
19543;SDS011;9917;51.256;7.152;2023-03-03T00:13:00;43.87;;;22.30;;
19543;SDS011;9917;51.256;7.152;2023-03-03T00:15:27;49.07;;;23.33;;
19543;SDS011;9917;51.256;7.152;2023-03-03T00:17:54;48.67;;;24.63;;
19543;SDS011;9917;51.256;7.152;2023-03-03T00:23:16;48.83;;;23.80;;
19543;SDS011;9917;51.256;7.152;2023-03-03T00:25:55;53.27;;;24.13;;
19543;SDS011;9917;51.256;7.152;2023-03-03T00:28:23;49.63;;;23.20;;
19543;SDS011;9917;51.256;7.152;2023-03-03T00:30:51;51.20;;;23.63;;
19543;SDS011;9917;51.256;7.152;2023-03-03T00:33:21;47.27;;;23.07;;
19543;SDS011;9917;51.256;7.152;2023-03-03T00:35:50;47.80;;;24.50;;
19543;SDS011;9917;51.256;7.152;2023-03-03T00:38:16;49.07;;;24.13;;
19543;SDS011;9917;51.256;7.152;2023-03-03T00:40:42;49.43;;;24.83;;
19543;SDS011;9917;51.256;7.152;2023-03-03T00:43:14;53.30;;;24.40;;
19543;SDS011;9917;51.256;7.152;2023-03-03T00:45:44;55.17;;;26.63;;
19543;SDS011;9917;51.256;7.152;2023-03-03T00:48:17;51.43;;;22.63;;
19543;SDS011;9917;51.256;7.152;2023-03-03T00:50:46;52.67;;;25.67;;
19543;SDS011;9917;51.256;7.152;2023-03-03T00:53:12;47.50;;;24.17;;
19543;SDS011;9917;51.256;7.152;2023-03-03T00:55:39;51.17;;;24.50;;
19543;SDS011;9917;51.256;7.152;2023-03-03T00:58:05;52.73;;;24.13;;
19543;SDS011;9917;51.256;7.152;2023-03-03T01:00:32;55.10;;;25.20;;
19543;SDS011;9917;51.256;7.152;2023-03-03T01:02:58;52.57;;;24.30;;
19543;SDS011;9917;51.256;7.152;2023-03-03T01:05:26;54.20;;;24.93;;
19543;SDS011;9917;51.256;7.152;2023-03-03T01:07:52;51.20;;;23.30;;
19543;SDS011;9917;51.256;7.152;2023-03-03T01:10:18;53.67;;;24.70;;
19543;SDS011;9917;51.256;7.152;2023-03-03T01:12:43;54.33;;;24.17;;
19543;SDS011;9917;51.256;7.152;2023-03-03T01:15:10;45.40;;;22.17;;
19543;SDS011;9917;51.256;7.152;2023-03-03T01:17:39;48.90;;;24.40;;
19543;SDS011;9917;51.256;7.152;2023-03-03T01:20:06;46.93;;;22.40;;
19543;SDS011;9917;51.256;7.152;2023-03-03T01:22:34;46.87;;;22.40;;
19543;SDS011;9917;51.256;7.152;2023-03-03T01:25:00;48.20;;;22.53;;
19543;SDS011;9917;51.256;7.152;2023-03-03T01:27:26;46.67;;;22.77;;
19543;SDS011;9917;51.256;7.152;2023-03-03T01:29:52;43.50;;;20.33;;
19543;SDS011;9917;51.256;7.152;2023-03-03T01:32:18;44.60;;;21.93;;
19543;SDS011;9917;51.256;7.152;2023-03-03T01:34:46;43.70;;;21.40;;
19543;SDS011;9917;51.256;7.152;2023-03-03T01:37:11;43.73;;;22.03;;
19543;SDS011;9917;51.256;7.152;2023-03-03T01:39:37;42.17;;;20.17;;
19543;SDS011;9917;51.256;7.152;2023-03-03T01:42:03;41.50;;;20.43;;
19543;SDS011;9917;51.256;7.152;2023-03-03T01:44:28;39.63;;;19.47;;
19543;SDS011;9917;51.256;7.152;2023-03-03T01:46:54;37.43;;;19.00;;
19543;SDS011;9917;51.256;7.152;2023-03-03T01:49:29;36.70;;;18.40;;
19543;SDS011;9917;51.256;7.152;2023-03-03T01:52:00;36.77;;;18.70;;
19543;SDS011;9917;51.256;7.152;2023-03-03T01:54:28;37.83;;;18.57;;
19543;SDS011;9917;51.256;7.152;2023-03-03T01:57:01;39.93;;;18.77;;
19543;SDS011;9917;51.256;7.152;2023-03-03T01:59:31;42.00;;;20.67;;
19543;SDS011;9917;51.256;7.152;2023-03-03T02:01:59;41.23;;;19.63;;
19543;SDS011;9917;51.256;7.152;2023-03-03T02:04:25;42.40;;;20.27;;
19543;SDS011;9917;51.256;7.152;2023-03-03T02:06:53;39.03;;;20.00;;
19543;SDS011;9917;51.256;7.152;2023-03-03T02:09:25;41.50;;;19.70;;
19543;SDS011;9917;51.256;7.152;2023-03-03T02:11:57;41.03;;;19.83;;
19543;SDS011;9917;51.256;7.152;2023-03-03T02:14:25;39.27;;;19.23;;
19543;SDS011;9917;51.256;7.152;2023-03-03T02:16:51;43.37;;;19.43;;
19543;SDS011;9917;51.256;7.152;2023-03-03T02:19:18;42.83;;;20.53;;
19543;SDS011;9917;51.256;7.152;2023-03-03T02:21:51;40.33;;;19.70;;
19543;SDS011;9917;51.256;7.152;2023-03-03T02:24:17;43.17;;;19.30;;
19543;SDS011;9917;51.256;7.152;2023-03-03T02:26:52;42.27;;;21.73;;
19543;SDS011;9917;51.256;7.152;2023-03-03T02:29:18;44.80;;;21.53;;
19543;SDS011;9917;51.256;7.152;2023-03-03T02:31:44;44.47;;;20.00;;
19543;SDS011;9917;51.256;7.152;2023-03-03T02:34:09;42.80;;;19.27;;
19543;SDS011;9917;51.256;7.152;2023-03-03T02:36:36;38.60;;;19.37;;
19543;SDS011;9917;51.256;7.152;2023-03-03T02:39:04;41.00;;;19.83;;
19543;SDS011;9917;51.256;7.152;2023-03-03T02:41:34;44.60;;;20.10;;
19543;SDS011;9917;51.256;7.152;2023-03-03T02:44:05;45.63;;;21.30;;
19543;SDS011;9917;51.256;7.152;2023-03-03T02:46:32;44.80;;;19.60;;
19543;SDS011;9917;51.256;7.152;2023-03-03T02:48:59;44.10;;;19.20;;
19543;SDS011;9917;51.256;7.152;2023-03-03T02:51:25;38.53;;;19.27;;
19543;SDS011;9917;51.256;7.152;2023-03-03T02:53:51;40.73;;;18.80;;
19543;SDS011;9917;51.256;7.152;2023-03-03T02:56:17;41.23;;;20.10;;
19543;SDS011;9917;51.256;7.152;2023-03-03T02:58:43;35.63;;;18.27;;
19543;SDS011;9917;51.256;7.152;2023-03-03T03:01:10;43.50;;;19.60;;
19543;SDS011;9917;51.256;7.152;2023-03-03T03:03:36;33.93;;;17.33;;
19543;SDS011;9917;51.256;7.152;2023-03-03T03:06:02;40.97;;;18.97;;
19543;SDS011;9917;51.256;7.152;2023-03-03T03:08:28;43.13;;;19.53;;
19543;SDS011;9917;51.256;7.152;2023-03-03T03:10:54;41.40;;;18.37;;
19543;SDS011;9917;51.256;7.152;2023-03-03T03:13:20;40.33;;;18.83;;
19543;SDS011;9917;51.256;7.152;2023-03-03T03:15:46;44.70;;;20.60;;
19543;SDS011;9917;51.256;7.152;2023-03-03T03:18:13;38.23;;;18.70;;
19543;SDS011;9917;51.256;7.152;2023-03-03T03:20:39;38.87;;;18.77;;
19543;SDS011;9917;51.256;7.152;2023-03-03T03:23:04;41.23;;;18.93;;
19543;SDS011;9917;51.256;7.152;2023-03-03T03:25:30;42.90;;;20.07;;
19543;SDS011;9917;51.256;7.152;2023-03-03T03:27:56;43.00;;;20.00;;
19543;SDS011;9917;51.256;7.152;2023-03-03T03:30:22;47.07;;;20.10;;
19543;SDS011;9917;51.256;7.152;2023-03-03T03:32:48;42.90;;;20.50;;
19543;SDS011;9917;51.256;7.152;2023-03-03T03:35:15;44.90;;;20.23;;
19543;SDS011;9917;51.256;7.152;2023-03-03T03:37:41;37.17;;;18.67;;
19543;SDS011;9917;51.256;7.152;2023-03-03T03:40:07;40.17;;;19.37;;
19543;SDS011;9917;51.256;7.152;2023-03-03T03:42:33;42.80;;;19.80;;
19543;SDS011;9917;51.256;7.152;2023-03-03T03:44:59;41.40;;;19.00;;
19543;SDS011;9917;51.256;7.152;2023-03-03T03:47:25;34.80;;;18.50;;
19543;SDS011;9917;51.256;7.152;2023-03-03T03:49:51;37.53;;;19.03;;
19543;SDS011;9917;51.256;7.152;2023-03-03T03:52:18;35.70;;;18.57;;
19543;SDS011;9917;51.256;7.152;2023-03-03T03:54:44;33.00;;;16.37;;
19543;SDS011;9917;51.256;7.152;2023-03-03T03:57:10;40.83;;;18.97;;
19543;SDS011;9917;51.256;7.152;2023-03-03T03:59:35;35.37;;;18.03;;
19543;SDS011;9917;51.256;7.152;2023-03-03T04:02:01;39.50;;;18.20;;
19543;SDS011;9917;51.256;7.152;2023-03-03T04:04:27;37.37;;;18.97;;
19543;SDS011;9917;51.256;7.152;2023-03-03T04:06:53;38.33;;;19.03;;
19543;SDS011;9917;51.256;7.152;2023-03-03T04:09:20;41.67;;;19.47;;
19543;SDS011;9917;51.256;7.152;2023-03-03T04:11:46;37.17;;;17.23;;
19543;SDS011;9917;51.256;7.152;2023-03-03T04:14:12;39.73;;;18.80;;
19543;SDS011;9917;51.256;7.152;2023-03-03T04:16:37;37.60;;;18.77;;
19543;SDS011;9917;51.256;7.152;2023-03-03T04:19:03;39.87;;;19.07;;
19543;SDS011;9917;51.256;7.152;2023-03-03T04:21:29;39.00;;;19.33;;
19543;SDS011;9917;51.256;7.152;2023-03-03T04:23:54;37.33;;;18.23;;
19543;SDS011;9917;51.256;7.152;2023-03-03T04:26:22;39.03;;;18.40;;
19543;SDS011;9917;51.256;7.152;2023-03-03T04:28:47;40.23;;;18.13;;
19543;SDS011;9917;51.256;7.152;2023-03-03T04:31:13;36.10;;;17.50;;
19543;SDS011;9917;51.256;7.152;2023-03-03T04:33:39;37.73;;;16.77;;
19543;SDS011;9917;51.256;7.152;2023-03-03T04:36:05;38.33;;;18.37;;
19543;SDS011;9917;51.256;7.152;2023-03-03T04:38:31;39.80;;;17.57;;
19543;SDS011;9917;51.256;7.152;2023-03-03T04:40:57;37.63;;;17.33;;
19543;SDS011;9917;51.256;7.152;2023-03-03T04:43:24;39.07;;;17.90;;
19543;SDS011;9917;51.256;7.152;2023-03-03T04:45:50;36.37;;;17.00;;
19543;SDS011;9917;51.256;7.152;2023-03-03T04:48:15;38.13;;;17.53;;
19543;SDS011;9917;51.256;7.152;2023-03-03T04:50:41;38.30;;;16.70;;
19543;SDS011;9917;51.256;7.152;2023-03-03T04:53:07;39.10;;;17.53;;
19543;SDS011;9917;51.256;7.152;2023-03-03T04:55:34;35.63;;;16.63;;
19543;SDS011;9917;51.256;7.152;2023-03-03T04:58:00;37.50;;;17.10;;
19543;SDS011;9917;51.256;7.152;2023-03-03T05:00:27;38.67;;;16.83;;
19543;SDS011;9917;51.256;7.152;2023-03-03T05:02:54;36.00;;;17.33;;
19543;SDS011;9917;51.256;7.152;2023-03-03T05:05:20;34.83;;;16.97;;
19543;SDS011;9917;51.256;7.152;2023-03-03T05:07:46;41.77;;;18.20;;
19543;SDS011;9917;51.256;7.152;2023-03-03T05:10:12;40.50;;;18.40;;
19543;SDS011;9917;51.256;7.152;2023-03-03T05:12:38;38.37;;;16.87;;
19543;SDS011;9917;51.256;7.152;2023-03-03T05:15:05;38.67;;;17.67;;
19543;SDS011;9917;51.256;7.152;2023-03-03T05:17:33;40.40;;;18.20;;
19543;SDS011;9917;51.256;7.152;2023-03-03T05:19:58;41.27;;;19.27;;
19543;SDS011;9917;51.256;7.152;2023-03-03T05:22:24;40.67;;;18.97;;
19543;SDS011;9917;51.256;7.152;2023-03-03T05:24:50;47.17;;;19.73;;
19543;SDS011;9917;51.256;7.152;2023-03-03T05:27:16;46.77;;;19.07;;
19543;SDS011;9917;51.256;7.152;2023-03-03T05:29:41;38.73;;;17.90;;
19543;SDS011;9917;51.256;7.152;2023-03-03T05:32:07;42.33;;;19.10;;
19543;SDS011;9917;51.256;7.152;2023-03-03T05:34:34;39.60;;;18.33;;
19543;SDS011;9917;51.256;7.152;2023-03-03T05:37:00;44.97;;;19.10;;
19543;SDS011;9917;51.256;7.152;2023-03-03T05:39:26;41.63;;;20.17;;
19543;SDS011;9917;51.256;7.152;2023-03-03T05:41:52;43.83;;;18.37;;
19543;SDS011;9917;51.256;7.152;2023-03-03T05:44:18;47.77;;;20.97;;
19543;SDS011;9917;51.256;7.152;2023-03-03T05:46:44;40.03;;;17.63;;
19543;SDS011;9917;51.256;7.152;2023-03-03T05:49:10;38.77;;;18.47;;
19543;SDS011;9917;51.256;7.152;2023-03-03T05:51:37;39.17;;;18.20;;
19543;SDS011;9917;51.256;7.152;2023-03-03T05:54:02;38.07;;;18.27;;
19543;SDS011;9917;51.256;7.152;2023-03-03T05:56:28;45.17;;;19.90;;
19543;SDS011;9917;51.256;7.152;2023-03-03T05:58:54;48.70;;;20.13;;
19543;SDS011;9917;51.256;7.152;2023-03-03T06:01:20;44.60;;;18.60;;
19543;SDS011;9917;51.256;7.152;2023-03-03T06:03:46;41.20;;;19.37;;
19543;SDS011;9917;51.256;7.152;2023-03-03T06:06:11;42.93;;;18.37;;
19543;SDS011;9917;51.256;7.152;2023-03-03T06:08:39;40.77;;;18.23;;
19543;SDS011;9917;51.256;7.152;2023-03-03T06:11:04;41.93;;;18.53;;
19543;SDS011;9917;51.256;7.152;2023-03-03T06:13:30;42.13;;;18.93;;
19543;SDS011;9917;51.256;7.152;2023-03-03T06:15:56;43.33;;;18.73;;
19543;SDS011;9917;51.256;7.152;2023-03-03T06:18:22;40.10;;;18.73;;
19543;SDS011;9917;51.256;7.152;2023-03-03T06:20:50;40.67;;;17.73;;
19543;SDS011;9917;51.256;7.152;2023-03-03T06:23:16;41.93;;;17.87;;
19543;SDS011;9917;51.256;7.152;2023-03-03T06:25:43;41.63;;;19.07;;
19543;SDS011;9917;51.256;7.152;2023-03-03T06:28:09;39.70;;;18.30;;
19543;SDS011;9917;51.256;7.152;2023-03-03T06:30:35;41.60;;;18.53;;
19543;SDS011;9917;51.256;7.152;2023-03-03T06:33:01;41.90;;;18.67;;
19543;SDS011;9917;51.256;7.152;2023-03-03T06:35:26;43.90;;;19.13;;
19543;SDS011;9917;51.256;7.152;2023-03-03T06:37:52;40.43;;;17.90;;
19543;SDS011;9917;51.256;7.152;2023-03-03T06:40:18;41.00;;;18.37;;
19543;SDS011;9917;51.256;7.152;2023-03-03T06:42:45;39.77;;;17.77;;
19543;SDS011;9917;51.256;7.152;2023-03-03T06:45:11;41.03;;;17.93;;
19543;SDS011;9917;51.256;7.152;2023-03-03T06:47:37;39.57;;;18.50;;
19543;SDS011;9917;51.256;7.152;2023-03-03T06:50:03;42.43;;;18.37;;
19543;SDS011;9917;51.256;7.152;2023-03-03T06:52:30;38.30;;;17.80;;
19543;SDS011;9917;51.256;7.152;2023-03-03T06:54:57;34.73;;;16.30;;
19543;SDS011;9917;51.256;7.152;2023-03-03T06:57:25;43.17;;;18.77;;
19543;SDS011;9917;51.256;7.152;2023-03-03T06:59:55;38.47;;;17.63;;
19543;SDS011;9917;51.256;7.152;2023-03-03T07:02:23;42.50;;;18.30;;
19543;SDS011;9917;51.256;7.152;2023-03-03T07:04:48;38.80;;;18.03;;
19543;SDS011;9917;51.256;7.152;2023-03-03T07:07:15;39.63;;;17.63;;
19543;SDS011;9917;51.256;7.152;2023-03-03T07:09:43;39.67;;;18.50;;
19543;SDS011;9917;51.256;7.152;2023-03-03T07:12:10;43.77;;;18.67;;
19543;SDS011;9917;51.256;7.152;2023-03-03T07:14:40;41.73;;;18.90;;
19543;SDS011;9917;51.256;7.152;2023-03-03T07:17:10;46.50;;;20.80;;
19543;SDS011;9917;51.256;7.152;2023-03-03T07:19:40;44.90;;;19.43;;
19543;SDS011;9917;51.256;7.152;2023-03-03T07:22:11;54.57;;;23.07;;
19543;SDS011;9917;51.256;7.152;2023-03-03T07:24:40;50.07;;;20.83;;
19543;SDS011;9917;51.256;7.152;2023-03-03T07:27:09;46.27;;;20.27;;
19543;SDS011;9917;51.256;7.152;2023-03-03T07:29:37;51.50;;;21.90;;
19543;SDS011;9917;51.256;7.152;2023-03-03T07:32:19;51.77;;;20.97;;
19543;SDS011;9917;51.256;7.152;2023-03-03T07:34:50;51.93;;;21.07;;
19543;SDS011;9917;51.256;7.152;2023-03-03T07:37:21;45.13;;;19.20;;
19543;SDS011;9917;51.256;7.152;2023-03-03T07:39:53;45.50;;;19.67;;
19543;SDS011;9917;51.256;7.152;2023-03-03T07:42:21;42.57;;;18.63;;
19543;SDS011;9917;51.256;7.152;2023-03-03T07:44:49;39.20;;;16.80;;
19543;SDS011;9917;51.256;7.152;2023-03-03T07:47:20;37.20;;;16.80;;
19543;SDS011;9917;51.256;7.152;2023-03-03T07:49:49;43.27;;;18.87;;
19543;SDS011;9917;51.256;7.152;2023-03-03T07:52:26;39.00;;;17.00;;
19543;SDS011;9917;51.256;7.152;2023-03-03T07:54:55;40.67;;;17.47;;
19543;SDS011;9917;51.256;7.152;2023-03-03T07:57:23;37.67;;;17.20;;
19543;SDS011;9917;51.256;7.152;2023-03-03T07:59:51;37.93;;;16.40;;
19543;SDS011;9917;51.256;7.152;2023-03-03T08:05:26;37.80;;;17.67;;
19543;SDS011;9917;51.256;7.152;2023-03-03T08:07:54;40.03;;;17.53;;
19543;SDS011;9917;51.256;7.152;2023-03-03T08:10:35;38.67;;;17.03;;
19543;SDS011;9917;51.256;7.152;2023-03-03T08:13:14;33.57;;;16.00;;
19543;SDS011;9917;51.256;7.152;2023-03-03T08:15:42;39.70;;;17.67;;
19543;SDS011;9917;51.256;7.152;2023-03-03T08:18:14;36.80;;;16.73;;
19543;SDS011;9917;51.256;7.152;2023-03-03T08:20:50;37.43;;;15.83;;
19543;SDS011;9917;51.256;7.152;2023-03-03T08:23:18;34.83;;;15.53;;
19543;SDS011;9917;51.256;7.152;2023-03-03T08:25:45;33.03;;;16.03;;
19543;SDS011;9917;51.256;7.152;2023-03-03T08:28:12;36.50;;;16.43;;
19543;SDS011;9917;51.256;7.152;2023-03-03T08:30:38;40.57;;;16.30;;
19543;SDS011;9917;51.256;7.152;2023-03-03T08:33:04;34.80;;;15.10;;
19543;SDS011;9917;51.256;7.152;2023-03-03T08:35:30;38.07;;;16.10;;
19543;SDS011;9917;51.256;7.152;2023-03-03T08:37:57;38.40;;;16.47;;
19543;SDS011;9917;51.256;7.152;2023-03-03T08:40:22;40.23;;;16.73;;
19543;SDS011;9917;51.256;7.152;2023-03-03T08:42:48;38.70;;;17.40;;
19543;SDS011;9917;51.256;7.152;2023-03-03T08:45:14;35.30;;;15.87;;
19543;SDS011;9917;51.256;7.152;2023-03-03T08:47:40;39.30;;;16.40;;
19543;SDS011;9917;51.256;7.152;2023-03-03T08:50:06;40.57;;;16.30;;
19543;SDS011;9917;51.256;7.152;2023-03-03T08:52:32;35.67;;;15.33;;
19543;SDS011;9917;51.256;7.152;2023-03-03T08:54:59;30.30;;;14.27;;
19543;SDS011;9917;51.256;7.152;2023-03-03T08:57:25;39.97;;;15.53;;
19543;SDS011;9917;51.256;7.152;2023-03-03T08:59:51;37.20;;;15.93;;
19543;SDS011;9917;51.256;7.152;2023-03-03T09:02:16;32.93;;;15.43;;
19543;SDS011;9917;51.256;7.152;2023-03-03T09:04:42;33.37;;;14.97;;
19543;SDS011;9917;51.256;7.152;2023-03-03T09:07:08;35.90;;;15.03;;
19543;SDS011;9917;51.256;7.152;2023-03-03T09:09:34;33.53;;;14.77;;
19543;SDS011;9917;51.256;7.152;2023-03-03T09:12:08;34.17;;;15.47;;
19543;SDS011;9917;51.256;7.152;2023-03-03T09:14:39;38.07;;;16.50;;
19543;SDS011;9917;51.256;7.152;2023-03-03T09:17:07;36.13;;;15.37;;
19543;SDS011;9917;51.256;7.152;2023-03-03T09:19:47;42.40;;;16.20;;
19543;SDS011;9917;51.256;7.152;2023-03-03T09:22:17;32.77;;;15.10;;
19543;SDS011;9917;51.256;7.152;2023-03-03T09:24:44;35.47;;;15.63;;
19543;SDS011;9917;51.256;7.152;2023-03-03T09:27:14;35.93;;;15.27;;
19543;SDS011;9917;51.256;7.152;2023-03-03T09:29:42;33.57;;;14.73;;
19543;SDS011;9917;51.256;7.152;2023-03-03T09:32:15;32.80;;;14.40;;
19543;SDS011;9917;51.256;7.152;2023-03-03T09:34:48;31.67;;;14.60;;
19543;SDS011;9917;51.256;7.152;2023-03-03T09:37:16;35.13;;;14.60;;
19543;SDS011;9917;51.256;7.152;2023-03-03T09:39:46;31.57;;;14.77;;
19543;SDS011;9917;51.256;7.152;2023-03-03T09:42:26;31.30;;;14.53;;
19543;SDS011;9917;51.256;7.152;2023-03-03T09:45:18;30.67;;;14.13;;
19543;SDS011;9917;51.256;7.152;2023-03-03T09:47:59;31.33;;;13.77;;
19543;SDS011;9917;51.256;7.152;2023-03-03T09:50:39;32.73;;;13.80;;
19543;SDS011;9917;51.256;7.152;2023-03-03T09:53:15;33.43;;;14.63;;
19543;SDS011;9917;51.256;7.152;2023-03-03T09:55:49;36.23;;;14.97;;
19543;SDS011;9917;51.256;7.152;2023-03-03T09:58:32;38.00;;;14.70;;
19543;SDS011;9917;51.256;7.152;2023-03-03T10:01:12;36.37;;;15.40;;
19543;SDS011;9917;51.256;7.152;2023-03-03T10:03:56;39.63;;;17.90;;
19543;SDS011;9917;51.256;7.152;2023-03-03T10:06:32;45.70;;;18.37;;
19543;SDS011;9917;51.256;7.152;2023-03-03T10:09:28;41.40;;;17.33;;
19543;SDS011;9917;51.256;7.152;2023-03-03T10:12:04;37.27;;;15.77;;
19543;SDS011;9917;51.256;7.152;2023-03-03T10:14:44;35.63;;;15.57;;
19543;SDS011;9917;51.256;7.152;2023-03-03T10:17:24;33.90;;;15.50;;
19543;SDS011;9917;51.256;7.152;2023-03-03T10:20:01;34.67;;;14.60;;
19543;SDS011;9917;51.256;7.152;2023-03-03T10:25:13;45.87;;;20.37;;
19543;SDS011;9917;51.256;7.152;2023-03-03T10:27:55;42.53;;;18.30;;
19543;SDS011;9917;51.256;7.152;2023-03-03T10:30:34;37.50;;;17.83;;
19543;SDS011;9917;51.256;7.152;2023-03-03T10:33:09;39.83;;;17.57;;
19543;SDS011;9917;51.256;7.152;2023-03-03T10:35:45;38.93;;;16.83;;
19543;SDS011;9917;51.256;7.152;2023-03-03T10:38:37;34.60;;;16.27;;
19543;SDS011;9917;51.256;7.152;2023-03-03T10:41:17;37.23;;;16.07;;
19543;SDS011;9917;51.256;7.152;2023-03-03T10:43:59;37.50;;;16.20;;
19543;SDS011;9917;51.256;7.152;2023-03-03T10:46:47;33.93;;;15.50;;
19543;SDS011;9917;51.256;7.152;2023-03-03T10:49:26;35.30;;;14.93;;
19543;SDS011;9917;51.256;7.152;2023-03-03T10:52:18;35.43;;;15.77;;
19543;SDS011;9917;51.256;7.152;2023-03-03T10:55:00;37.30;;;15.77;;
19543;SDS011;9917;51.256;7.152;2023-03-03T10:57:46;34.50;;;15.07;;
19543;SDS011;9917;51.256;7.152;2023-03-03T11:00:32;35.77;;;15.37;;
19543;SDS011;9917;51.256;7.152;2023-03-03T11:03:16;36.50;;;15.53;;
19543;SDS011;9917;51.256;7.152;2023-03-03T11:05:59;36.03;;;14.93;;
19543;SDS011;9917;51.256;7.152;2023-03-03T11:08:26;31.90;;;14.50;;
19543;SDS011;9917;51.256;7.152;2023-03-03T11:10:59;34.00;;;14.17;;
19543;SDS011;9917;51.256;7.152;2023-03-03T11:13:35;30.63;;;14.13;;
19543;SDS011;9917;51.256;7.152;2023-03-03T11:16:14;38.10;;;15.90;;
19543;SDS011;9917;51.256;7.152;2023-03-03T11:18:53;40.03;;;15.83;;
19543;SDS011;9917;51.256;7.152;2023-03-03T11:21:28;35.50;;;15.50;;
19543;SDS011;9917;51.256;7.152;2023-03-03T11:24:05;37.00;;;16.20;;
19543;SDS011;9917;51.256;7.152;2023-03-03T11:30:02;39.53;;;16.40;;
19543;SDS011;9917;51.256;7.152;2023-03-03T11:32:44;35.07;;;15.83;;
19543;SDS011;9917;51.256;7.152;2023-03-03T11:35:21;36.07;;;16.63;;
19543;SDS011;9917;51.256;7.152;2023-03-03T11:38:00;38.30;;;16.33;;
19543;SDS011;9917;51.256;7.152;2023-03-03T11:40:36;42.33;;;17.13;;
19543;SDS011;9917;51.256;7.152;2023-03-03T11:43:09;38.78;;;17.98;;
19543;SDS011;9917;51.256;7.152;2023-03-03T11:45:42;35.87;;;16.33;;
19543;SDS011;9917;51.256;7.152;2023-03-03T11:48:12;35.50;;;16.43;;
19543;SDS011;9917;51.256;7.152;2023-03-03T11:50:44;36.93;;;15.97;;
19543;SDS011;9917;51.256;7.152;2023-03-03T11:53:23;37.40;;;16.40;;
19543;SDS011;9917;51.256;7.152;2023-03-03T11:55:56;40.37;;;16.27;;
19543;SDS011;9917;51.256;7.152;2023-03-03T11:58:30;34.15;;;15.80;;
19543;SDS011;9917;51.256;7.152;2023-03-03T12:01:01;35.65;;;14.55;;
19543;SDS011;9917;51.256;7.152;2023-03-03T12:03:33;35.67;;;16.93;;
19543;SDS011;9917;51.256;7.152;2023-03-03T12:06:09;33.25;;;15.85;;
19543;SDS011;9917;51.256;7.152;2023-03-03T12:08:56;34.78;;;15.30;;
19543;SDS011;9917;51.256;7.152;2023-03-03T12:11:33;33.87;;;15.33;;
19543;SDS011;9917;51.256;7.152;2023-03-03T12:14:13;36.10;;;16.13;;
19543;SDS011;9917;51.256;7.152;2023-03-03T12:16:51;34.33;;;15.48;;
19543;SDS011;9917;51.256;7.152;2023-03-03T12:19:33;31.13;;;14.77;;
19543;SDS011;9917;51.256;7.152;2023-03-03T12:22:09;37.15;;;14.80;;
19543;SDS011;9917;51.256;7.152;2023-03-03T12:24:46;36.83;;;16.10;;
19543;SDS011;9917;51.256;7.152;2023-03-03T12:27:29;35.75;;;15.38;;
19543;SDS011;9917;51.256;7.152;2023-03-03T12:30:05;32.97;;;15.65;;
19543;SDS011;9917;51.256;7.152;2023-03-03T12:32:46;31.05;;;15.35;;
19543;SDS011;9917;51.256;7.152;2023-03-03T12:35:19;34.25;;;14.80;;
19543;SDS011;9917;51.256;7.152;2023-03-03T12:37:57;35.13;;;15.13;;
19543;SDS011;9917;51.256;7.152;2023-03-03T12:40:30;30.67;;;14.40;;
19543;SDS011;9917;51.256;7.152;2023-03-03T12:43:02;32.50;;;14.40;;
19543;SDS011;9917;51.256;7.152;2023-03-03T12:45:43;33.08;;;14.25;;
19543;SDS011;9917;51.256;7.152;2023-03-03T12:48:15;32.50;;;14.70;;
19543;SDS011;9917;51.256;7.152;2023-03-03T12:50:47;32.63;;;14.50;;
19543;SDS011;9917;51.256;7.152;2023-03-03T12:53:24;37.97;;;14.90;;
19543;SDS011;9917;51.256;7.152;2023-03-03T12:56:03;38.50;;;16.73;;
19543;SDS011;9917;51.256;7.152;2023-03-03T12:58:36;33.63;;;15.07;;
19543;SDS011;9917;51.256;7.152;2023-03-03T13:01:14;33.75;;;14.63;;
19543;SDS011;9917;51.256;7.152;2023-03-03T13:03:52;36.22;;;14.48;;
19543;SDS011;9917;51.256;7.152;2023-03-03T13:06:26;37.20;;;16.65;;
19543;SDS011;9917;51.256;7.152;2023-03-03T13:08:59;36.92;;;14.80;;
19543;SDS011;9917;51.256;7.152;2023-03-03T13:11:35;29.35;;;13.50;;
19543;SDS011;9917;51.256;7.152;2023-03-03T13:14:26;32.65;;;15.02;;
19543;SDS011;9917;51.256;7.152;2023-03-03T13:17:02;34.17;;;14.73;;
19543;SDS011;9917;51.256;7.152;2023-03-03T13:19:34;34.83;;;15.13;;
19543;SDS011;9917;51.256;7.152;2023-03-03T13:22:05;37.70;;;15.63;;
19543;SDS011;9917;51.256;7.152;2023-03-03T13:27:26;33.45;;;14.70;;
19543;SDS011;9917;51.256;7.152;2023-03-03T13:30:00;33.05;;;14.45;;
19543;SDS011;9917;51.256;7.152;2023-03-03T13:32:30;32.95;;;13.85;;
19543;SDS011;9917;51.256;7.152;2023-03-03T13:35:04;54.00;;;24.65;;
19543;SDS011;9917;51.256;7.152;2023-03-03T13:37:34;67.45;;;30.33;;
19543;SDS011;9917;51.256;7.152;2023-03-03T13:40:14;68.65;;;30.83;;
19543;SDS011;9917;51.256;7.152;2023-03-03T13:42:46;38.60;;;18.25;;
19543;SDS011;9917;51.256;7.152;2023-03-03T13:45:17;42.15;;;19.13;;
19543;SDS011;9917;51.256;7.152;2023-03-03T13:47:47;53.08;;;23.77;;
19543;SDS011;9917;51.256;7.152;2023-03-03T13:50:21;43.17;;;17.40;;
19543;SDS011;9917;51.256;7.152;2023-03-03T13:52:54;35.38;;;14.98;;
19543;SDS011;9917;51.256;7.152;2023-03-03T13:55:32;34.53;;;14.32;;
19543;SDS011;9917;51.256;7.152;2023-03-03T13:58:03;30.88;;;12.75;;
19543;SDS011;9917;51.256;7.152;2023-03-03T14:00:38;34.38;;;12.82;;
19543;SDS011;9917;51.256;7.152;2023-03-03T14:03:28;37.60;;;14.93;;
19543;SDS011;9917;51.256;7.152;2023-03-03T14:06:13;36.63;;;13.77;;
19543;SDS011;9917;51.256;7.152;2023-03-03T14:08:49;34.80;;;14.80;;
19543;SDS011;9917;51.256;7.152;2023-03-03T14:11:37;36.17;;;14.05;;
19543;SDS011;9917;51.256;7.152;2023-03-03T14:14:12;34.85;;;14.88;;
19543;SDS011;9917;51.256;7.152;2023-03-03T14:16:53;32.17;;;13.98;;
19543;SDS011;9917;51.256;7.152;2023-03-03T14:19:23;40.22;;;17.75;;
19543;SDS011;9917;51.256;7.152;2023-03-03T14:21:55;30.58;;;13.55;;
19543;SDS011;9917;51.256;7.152;2023-03-03T14:27:23;32.65;;;13.85;;
19543;SDS011;9917;51.256;7.152;2023-03-03T14:29:50;29.55;;;14.00;;
19543;SDS011;9917;51.256;7.152;2023-03-03T14:32:20;31.38;;;14.38;;
19543;SDS011;9917;51.256;7.152;2023-03-03T14:34:51;30.75;;;13.35;;
19543;SDS011;9917;51.256;7.152;2023-03-03T14:37:22;30.48;;;13.95;;
19543;SDS011;9917;51.256;7.152;2023-03-03T14:39:59;30.63;;;13.88;;
19543;SDS011;9917;51.256;7.152;2023-03-03T14:42:46;31.58;;;14.25;;
19543;SDS011;9917;51.256;7.152;2023-03-03T14:45:19;32.10;;;14.55;;
19543;SDS011;9917;51.256;7.152;2023-03-03T14:47:53;28.52;;;13.10;;
19543;SDS011;9917;51.256;7.152;2023-03-03T14:50:33;30.52;;;14.70;;
19543;SDS011;9917;51.256;7.152;2023-03-03T14:53:09;31.33;;;14.45;;
19543;SDS011;9917;51.256;7.152;2023-03-03T14:55:38;36.20;;;14.90;;
19543;SDS011;9917;51.256;7.152;2023-03-03T14:58:08;32.17;;;14.35;;
19543;SDS011;9917;51.256;7.152;2023-03-03T15:01:06;31.08;;;14.30;;
19543;SDS011;9917;51.256;7.152;2023-03-03T15:03:34;29.80;;;14.55;;
19543;SDS011;9917;51.256;7.152;2023-03-03T15:06:00;33.65;;;15.95;;
19543;SDS011;9917;51.256;7.152;2023-03-03T15:08:30;34.20;;;15.32;;
19543;SDS011;9917;51.256;7.152;2023-03-03T15:11:11;33.00;;;15.40;;